createdAt,value
2018-11-05T06:42:58.861Z,22.00
2018-11-05T06:45:28.995Z,22.00
2018-11-05T06:47:58.329Z,21.00
2018-11-05T06:50:28.913Z,20.40
2018-11-05T06:52:58.686Z,20.50
2018-11-05T06:55:28.544Z,19.90
2018-11-05T06:57:58.080Z,19.70
2018-11-05T07:00:27.802Z,20.10
2018-11-05T07:02:57.051Z,20.90
2018-11-05T07:05:26.306Z,21.30
2018-11-05T07:07:55.455Z,21.50
2018-11-05T07:10:24.589Z,21.60
2018-11-05T07:12:53.722Z,21.70
2018-11-05T07:15:22.923Z,21.90
2018-11-05T07:17:52.033Z,22.00
2018-11-05T07:20:21.962Z,22.00
2018-11-05T07:22:52.030Z,22.10
2018-11-05T07:25:21.446Z,22.00
2018-11-05T07:27:50.758Z,22.10
2018-11-05T07:30:21.179Z,22.20
2018-11-05T07:32:51.367Z,22.30
2018-11-05T07:35:20.747Z,22.30
2018-11-05T07:37:49.683Z,22.30
2018-11-05T07:40:19.703Z,22.30
2018-11-05T07:42:48.910Z,22.30
2018-11-05T07:45:20.130Z,22.30
2018-11-05T07:47:49.513Z,22.50
2018-11-05T07:50:19.881Z,22.60
2018-11-05T07:52:49.434Z,22.60
2018-11-05T07:55:19.224Z,22.80
2018-11-05T07:57:49.329Z,22.80
2018-11-05T08:00:22.605Z,22.80
2018-11-05T08:02:53.303Z,22.70
2018-11-05T08:05:23.300Z,22.80
2018-11-05T08:07:52.540Z,22.70
2018-11-05T08:10:21.829Z,22.70
2018-11-05T08:12:51.061Z,22.70
2018-11-05T08:15:21.493Z,22.80
2018-11-05T08:17:52.433Z,22.90
2018-11-05T08:20:21.703Z,23.00
2018-11-05T08:22:50.832Z,23.00
2018-11-05T08:25:20.186Z,23.00
2018-11-05T08:27:49.432Z,23.00
2018-11-05T08:30:19.940Z,22.90
2018-11-05T08:32:49.091Z,23.00
2018-11-05T08:35:18.224Z,23.00
2018-11-05T08:37:48.076Z,22.90
2018-11-05T08:40:24.171Z,23.00
2018-11-05T08:42:53.974Z,23.00
2018-11-05T08:45:24.673Z,23.10
2018-11-05T08:47:53.817Z,23.20
2018-11-05T08:50:24.088Z,23.10
2018-11-05T08:52:53.349Z,23.00
2018-11-05T08:55:23.729Z,22.90
2018-11-05T08:57:52.988Z,22.90
2018-11-05T09:00:28.395Z,22.90
2018-11-05T09:02:57.623Z,22.90
2018-11-05T09:05:26.820Z,22.90
2018-11-05T09:07:56.605Z,22.90
2018-11-05T09:10:25.948Z,23.00
2018-11-05T09:12:54.812Z,23.00
2018-11-05T09:15:24.155Z,23.00
2018-11-05T09:17:53.647Z,23.20
2018-11-05T09:20:23.801Z,23.10
2018-11-05T09:22:53.504Z,23.00
2018-11-05T09:25:22.761Z,23.00
2018-11-05T09:27:52.027Z,23.00
2018-11-05T09:30:22.557Z,23.00
2018-11-05T09:32:51.804Z,23.10
2018-11-05T09:35:20.836Z,23.10
2018-11-05T09:37:49.957Z,23.00
2018-11-05T09:40:20.612Z,23.10
2018-11-05T09:42:50.104Z,23.20
2018-11-05T09:45:22.453Z,23.20
2018-11-05T09:47:51.764Z,23.20
2018-11-05T09:50:21.423Z,23.20
2018-11-05T09:52:50.703Z,23.20
2018-11-05T09:55:19.906Z,23.20
2018-11-05T09:57:48.990Z,23.20
2018-11-05T10:00:20.359Z,23.10
2018-11-05T10:02:53.667Z,23.10
2018-11-05T10:05:22.987Z,23.10
2018-11-05T10:07:52.075Z,23.00
2018-11-05T10:10:21.292Z,23.00
2018-11-05T10:12:50.519Z,23.00
2018-11-05T10:15:19.771Z,23.00
2018-11-05T10:17:48.982Z,23.10
2018-11-05T10:20:19.305Z,23.20
2018-11-05T10:22:48.850Z,23.00
2018-11-05T10:25:18.503Z,23.10
2018-11-05T10:27:48.349Z,23.00
2018-11-05T10:30:19.660Z,23.00
2018-11-05T10:32:48.876Z,23.10
2018-11-05T10:35:18.579Z,23.30
2018-11-05T10:37:47.718Z,23.30
2018-11-05T10:40:20.118Z,23.40
2018-11-05T10:42:49.174Z,23.40
2018-11-05T10:45:19.191Z,23.50
2018-11-05T10:47:48.320Z,23.50
2018-11-05T10:50:18.492Z,23.60
2018-11-05T10:52:49.790Z,23.60
2018-11-05T10:55:18.946Z,23.70
2018-11-05T10:57:48.663Z,23.70
2018-11-05T11:00:26.463Z,23.70
2018-11-05T11:02:59.768Z,23.70
2018-11-05T11:05:29.906Z,23.70
2018-11-05T11:08:00.081Z,23.70
2018-11-05T11:10:30.232Z,23.70
2018-11-05T11:12:59.616Z,23.60
2018-11-05T11:15:28.789Z,23.40
2018-11-05T11:17:58.257Z,23.30
2018-11-05T11:20:27.348Z,23.30
2018-11-05T11:22:56.539Z,23.30
2018-11-05T11:25:25.848Z,23.20
2018-11-05T11:27:55.162Z,23.10
2018-11-05T11:30:24.193Z,23.10
2018-11-05T11:32:53.904Z,23.10
2018-11-05T11:35:23.146Z,23.00
2018-11-05T11:37:52.261Z,23.00
2018-11-05T11:40:22.921Z,23.00
2018-11-05T11:42:52.148Z,23.00
2018-11-05T11:45:22.178Z,23.00
2018-11-05T11:47:51.334Z,23.00
2018-11-05T11:50:20.484Z,23.00
2018-11-05T11:52:50.173Z,23.10
2018-11-05T11:55:20.838Z,23.10
2018-11-05T11:57:50.004Z,23.00
2018-11-05T12:00:22.157Z,23.00
2018-11-05T12:02:52.344Z,23.10
2018-11-05T12:05:21.626Z,23.20
2018-11-05T12:07:50.701Z,23.30
2018-11-05T12:10:22.588Z,23.30
2018-11-05T12:12:51.741Z,23.30
2018-11-05T12:15:21.823Z,23.30
2018-11-05T12:17:52.225Z,23.20
2018-11-05T12:20:22.605Z,23.20
2018-11-05T12:22:52.669Z,23.30
2018-11-05T12:25:22.039Z,23.20
2018-11-05T12:27:51.345Z,23.30
2018-11-05T12:30:22.206Z,23.30
2018-11-05T12:32:52.931Z,23.50
2018-11-05T12:35:22.170Z,23.50
2018-11-05T12:37:52.466Z,23.50
2018-11-05T12:40:22.453Z,23.40
2018-11-05T12:42:52.068Z,23.50
2018-11-05T12:45:21.188Z,23.50
2018-11-05T12:47:50.266Z,23.50
2018-11-05T12:50:22.630Z,23.50
2018-11-05T12:52:52.704Z,23.60
2018-11-05T12:55:22.009Z,23.70
2018-11-05T12:57:51.120Z,23.80
2018-11-05T13:00:21.992Z,23.90
2018-11-05T13:02:55.189Z,23.90
2018-11-05T13:05:25.164Z,23.90
2018-11-05T13:07:54.251Z,23.80
2018-11-05T13:10:23.353Z,23.80
2018-11-05T13:12:52.762Z,23.80
2018-11-05T13:15:21.890Z,23.80
2018-11-05T13:17:50.956Z,23.70
2018-11-05T13:20:21.599Z,23.50
2018-11-05T13:22:50.962Z,23.30
2018-11-05T13:25:20.207Z,23.40
2018-11-05T13:27:50.237Z,23.40
2018-11-05T13:30:19.437Z,23.50
2018-11-05T13:32:48.477Z,23.50
2018-11-05T13:35:19.243Z,23.50
2018-11-05T13:37:48.928Z,23.60
2018-11-05T13:40:19.081Z,23.50
2018-11-05T13:42:48.883Z,23.50
2018-11-05T13:45:18.412Z,23.50
2018-11-05T13:47:48.200Z,23.50
2018-11-05T13:50:17.438Z,23.60
2018-11-05T13:52:46.161Z,23.70
2018-11-05T13:55:16.689Z,23.80
2018-11-05T13:57:47.086Z,23.80
2018-11-05T14:00:18.743Z,23.80
2018-11-05T14:02:48.116Z,23.60
2018-11-05T14:05:17.286Z,23.40
2018-11-05T14:07:46.508Z,23.40
2018-11-05T14:10:17.635Z,23.50
2018-11-05T14:12:47.397Z,23.50
2018-11-05T14:15:16.496Z,23.50
2018-11-05T14:17:46.037Z,23.60
2018-11-05T14:20:16.309Z,23.50
2018-11-05T14:22:45.389Z,23.50
2018-11-05T14:25:15.936Z,23.50
2018-11-05T14:27:46.684Z,23.40
2018-11-05T14:30:15.744Z,23.40
2018-11-05T14:32:45.890Z,23.50
2018-11-05T14:35:15.010Z,23.50
2018-11-05T14:37:44.113Z,23.50
2018-11-05T14:40:14.772Z,23.50
2018-11-05T14:42:43.856Z,23.50
2018-11-05T14:45:14.569Z,23.50
2018-11-05T14:47:44.706Z,23.50
2018-11-05T14:50:15.692Z,23.50
2018-11-05T14:52:44.892Z,23.50
2018-11-05T14:55:16.834Z,23.60
2018-11-05T14:57:47.337Z,23.60
2018-11-05T15:00:18.797Z,23.70
2018-11-05T15:02:48.595Z,23.70
2018-11-05T15:05:18.278Z,23.80
2018-11-05T15:07:48.292Z,23.80
2018-11-05T15:10:19.136Z,23.70
2018-11-05T15:12:48.347Z,23.70
2018-11-05T15:15:18.097Z,23.60
2018-11-05T15:17:47.947Z,23.70
2018-11-05T15:20:18.606Z,23.70
2018-11-05T15:22:47.726Z,23.70
2018-11-05T15:25:17.555Z,23.70
2018-11-05T15:27:46.727Z,23.70
2018-11-05T15:30:17.923Z,23.70
2018-11-05T15:32:48.069Z,23.70
2018-11-05T15:35:17.247Z,23.70
2018-11-05T15:37:46.683Z,23.70
2018-11-05T15:40:17.428Z,23.70
2018-11-05T15:42:46.736Z,23.70
2018-11-05T15:45:17.416Z,23.70
2018-11-05T15:47:46.641Z,23.60
2018-11-05T15:50:17.399Z,23.70
2018-11-05T15:52:46.993Z,23.70
2018-11-05T15:55:15.940Z,23.80
2018-11-05T15:57:45.088Z,23.70
2018-11-05T16:00:19.341Z,23.80
2018-11-05T16:02:50.023Z,23.90
2018-11-05T16:05:19.785Z,23.80
